sensor_id;sensor_type;location;lat;lon;timestamp;P1;durP1;ratioP1;P2;durP2;ratioP2
48945;SDS011;34999;50.940;3.998;2023-05-29T00:00:02;17.90;;;10.07;;
48945;SDS011;34999;50.940;3.998;2023-05-29T00:02:33;18.90;;;10.40;;
48945;SDS011;34999;50.940;3.998;2023-05-29T00:05:01;16.90;;;10.50;;
48945;SDS011;34999;50.940;3.998;2023-05-29T00:07:30;22.67;;;11.37;;
48945;SDS011;34999;50.940;3.998;2023-05-29T00:09:59;25.00;;;11.33;;
48945;SDS011;34999;50.940;3.998;2023-05-29T00:12:29;21.07;;;11.17;;
48945;SDS011;34999;50.940;3.998;2023-05-29T00:14:58;21.83;;;10.50;;
48945;SDS011;34999;50.940;3.998;2023-05-29T00:17:27;21.63;;;11.20;;
48945;SDS011;34999;50.940;3.998;2023-05-29T00:19:55;20.33;;;10.60;;
48945;SDS011;34999;50.940;3.998;2023-05-29T00:22:25;22.17;;;10.43;;
48945;SDS011;34999;50.940;3.998;2023-05-29T00:24:53;22.43;;;11.00;;
48945;SDS011;34999;50.940;3.998;2023-05-29T00:27:21;21.17;;;10.67;;
48945;SDS011;34999;50.940;3.998;2023-05-29T00:29:51;23.07;;;10.67;;
48945;SDS011;34999;50.940;3.998;2023-05-29T00:32:19;16.17;;;9.97;;
48945;SDS011;34999;50.940;3.998;2023-05-29T00:34:48;21.13;;;11.07;;
48945;SDS011;34999;50.940;3.998;2023-05-29T00:37:17;20.23;;;10.97;;
48945;SDS011;34999;50.940;3.998;2023-05-29T00:39:47;22.53;;;10.00;;
48945;SDS011;34999;50.940;3.998;2023-05-29T00:42:16;17.10;;;9.93;;
48945;SDS011;34999;50.940;3.998;2023-05-29T00:44:44;20.47;;;10.00;;
48945;SDS011;34999;50.940;3.998;2023-05-29T00:47:14;17.57;;;10.90;;
48945;SDS011;34999;50.940;3.998;2023-05-29T00:49:43;16.57;;;10.53;;
48945;SDS011;34999;50.940;3.998;2023-05-29T00:52:12;21.33;;;10.50;;
48945;SDS011;34999;50.940;3.998;2023-05-29T00:54:42;16.80;;;10.10;;
48945;SDS011;34999;50.940;3.998;2023-05-29T00:57:12;15.97;;;9.67;;
48945;SDS011;34999;50.940;3.998;2023-05-29T00:59:40;17.13;;;10.40;;
48945;SDS011;34999;50.940;3.998;2023-05-29T01:02:09;18.30;;;10.63;;
48945;SDS011;34999;50.940;3.998;2023-05-29T01:04:39;15.83;;;10.40;;
48945;SDS011;34999;50.940;3.998;2023-05-29T01:07:08;19.57;;;10.10;;
48945;SDS011;34999;50.940;3.998;2023-05-29T01:09:37;16.77;;;9.73;;
48945;SDS011;34999;50.940;3.998;2023-05-29T01:12:08;17.23;;;9.93;;
48945;SDS011;34999;50.940;3.998;2023-05-29T01:14:45;15.73;;;9.37;;
48945;SDS011;34999;50.940;3.998;2023-05-29T01:17:27;19.37;;;9.83;;
48945;SDS011;34999;50.940;3.998;2023-05-29T01:20:11;20.10;;;9.27;;
48945;SDS011;34999;50.940;3.998;2023-05-29T01:26:07;19.23;;;9.17;;
48945;SDS011;34999;50.940;3.998;2023-05-29T01:28:48;15.93;;;8.67;;
48945;SDS011;34999;50.940;3.998;2023-05-29T01:31:19;14.17;;;9.30;;
48945;SDS011;34999;50.940;3.998;2023-05-29T01:33:51;17.70;;;9.17;;
48945;SDS011;34999;50.940;3.998;2023-05-29T01:36:21;15.63;;;8.30;;
48945;SDS011;34999;50.940;3.998;2023-05-29T01:38:49;21.90;;;9.03;;
48945;SDS011;34999;50.940;3.998;2023-05-29T01:41:19;13.63;;;8.50;;
48945;SDS011;34999;50.940;3.998;2023-05-29T01:43:50;11.23;;;7.77;;
48945;SDS011;34999;50.940;3.998;2023-05-29T01:46:20;17.63;;;8.27;;
48945;SDS011;34999;50.940;3.998;2023-05-29T01:48:49;15.47;;;8.13;;
48945;SDS011;34999;50.940;3.998;2023-05-29T01:51:17;17.03;;;7.63;;
48945;SDS011;34999;50.940;3.998;2023-05-29T01:53:46;13.73;;;6.60;;
48945;SDS011;34999;50.940;3.998;2023-05-29T01:56:14;14.70;;;6.90;;
48945;SDS011;34999;50.940;3.998;2023-05-29T01:58:43;16.30;;;6.97;;
48945;SDS011;34999;50.940;3.998;2023-05-29T02:01:14;14.63;;;6.97;;
48945;SDS011;34999;50.940;3.998;2023-05-29T02:03:42;14.37;;;6.33;;
48945;SDS011;34999;50.940;3.998;2023-05-29T02:06:11;17.67;;;6.57;;
48945;SDS011;34999;50.940;3.998;2023-05-29T02:08:39;15.73;;;6.47;;
48945;SDS011;34999;50.940;3.998;2023-05-29T02:11:07;15.13;;;6.47;;
48945;SDS011;34999;50.940;3.998;2023-05-29T02:13:36;12.90;;;5.50;;
48945;SDS011;34999;50.940;3.998;2023-05-29T02:16:05;13.77;;;5.80;;
48945;SDS011;34999;50.940;3.998;2023-05-29T02:18:35;15.13;;;6.07;;
48945;SDS011;34999;50.940;3.998;2023-05-29T02:21:03;20.13;;;6.07;;
48945;SDS011;34999;50.940;3.998;2023-05-29T02:23:32;17.53;;;5.53;;
48945;SDS011;34999;50.940;3.998;2023-05-29T02:26:00;17.10;;;5.77;;
48945;SDS011;34999;50.940;3.998;2023-05-29T02:28:28;17.70;;;5.57;;
48945;SDS011;34999;50.940;3.998;2023-05-29T02:30:57;12.10;;;4.80;;
48945;SDS011;34999;50.940;3.998;2023-05-29T02:33:25;10.23;;;5.00;;
48945;SDS011;34999;50.940;3.998;2023-05-29T02:35:55;17.83;;;5.33;;
48945;SDS011;34999;50.940;3.998;2023-05-29T02:38:24;16.97;;;5.20;;
48945;SDS011;34999;50.940;3.998;2023-05-29T02:40:53;10.53;;;4.47;;
48945;SDS011;34999;50.940;3.998;2023-05-29T02:43:22;18.67;;;5.33;;
48945;SDS011;34999;50.940;3.998;2023-05-29T02:45:50;14.33;;;4.43;;
48945;SDS011;34999;50.940;3.998;2023-05-29T02:48:19;10.37;;;4.90;;
48945;SDS011;34999;50.940;3.998;2023-05-29T02:50:47;13.63;;;4.50;;
48945;SDS011;34999;50.940;3.998;2023-05-29T02:53:17;16.40;;;4.93;;
48945;SDS011;34999;50.940;3.998;2023-05-29T02:55:46;10.23;;;4.17;;
48945;SDS011;34999;50.940;3.998;2023-05-29T02:58:15;8.97;;;4.20;;
48945;SDS011;34999;50.940;3.998;2023-05-29T03:00:44;10.17;;;5.07;;
48945;SDS011;34999;50.940;3.998;2023-05-29T03:03:12;16.10;;;4.83;;
48945;SDS011;34999;50.940;3.998;2023-05-29T03:05:41;15.77;;;4.70;;
48945;SDS011;34999;50.940;3.998;2023-05-29T03:08:09;12.50;;;4.77;;
48945;SDS011;34999;50.940;3.998;2023-05-29T03:10:40;15.43;;;4.47;;
48945;SDS011;34999;50.940;3.998;2023-05-29T03:13:10;14.57;;;4.90;;
48945;SDS011;34999;50.940;3.998;2023-05-29T03:15:38;9.33;;;4.03;;
48945;SDS011;34999;50.940;3.998;2023-05-29T03:18:07;17.03;;;4.83;;
48945;SDS011;34999;50.940;3.998;2023-05-29T03:20:35;15.33;;;4.53;;
48945;SDS011;34999;50.940;3.998;2023-05-29T03:23:04;10.43;;;4.50;;
48945;SDS011;34999;50.940;3.998;2023-05-29T03:25:32;16.90;;;4.83;;
48945;SDS011;34999;50.940;3.998;2023-05-29T03:28:02;11.93;;;4.27;;
48945;SDS011;34999;50.940;3.998;2023-05-29T03:30:30;8.40;;;4.00;;
48945;SDS011;34999;50.940;3.998;2023-05-29T03:32:58;14.23;;;4.53;;
48945;SDS011;34999;50.940;3.998;2023-05-29T03:35:30;13.87;;;4.67;;
48945;SDS011;34999;50.940;3.998;2023-05-29T03:37:58;22.27;;;4.77;;
48945;SDS011;34999;50.940;3.998;2023-05-29T03:40:26;14.03;;;4.07;;
48945;SDS011;34999;50.940;3.998;2023-05-29T03:42:55;11.17;;;4.10;;
48945;SDS011;34999;50.940;3.998;2023-05-29T03:45:24;12.43;;;4.43;;
48945;SDS011;34999;50.940;3.998;2023-05-29T03:47:53;10.87;;;3.77;;
48945;SDS011;34999;50.940;3.998;2023-05-29T03:50:21;13.87;;;4.50;;
48945;SDS011;34999;50.940;3.998;2023-05-29T03:52:50;13.87;;;4.23;;
48945;SDS011;34999;50.940;3.998;2023-05-29T03:55:18;19.37;;;4.50;;
48945;SDS011;34999;50.940;3.998;2023-05-29T03:57:46;9.37;;;4.20;;
48945;SDS011;34999;50.940;3.998;2023-05-29T04:00:14;18.00;;;4.10;;
48945;SDS011;34999;50.940;3.998;2023-05-29T04:02:46;15.50;;;3.97;;
48945;SDS011;34999;50.940;3.998;2023-05-29T04:05:14;13.77;;;3.83;;
48945;SDS011;34999;50.940;3.998;2023-05-29T04:07:43;11.90;;;3.77;;
48945;SDS011;34999;50.940;3.998;2023-05-29T04:10:11;11.40;;;4.00;;
48945;SDS011;34999;50.940;3.998;2023-05-29T04:12:40;13.73;;;4.43;;
48945;SDS011;34999;50.940;3.998;2023-05-29T04:15:08;12.70;;;4.10;;
48945;SDS011;34999;50.940;3.998;2023-05-29T04:17:37;9.33;;;3.97;;
48945;SDS011;34999;50.940;3.998;2023-05-29T04:20:07;17.50;;;3.70;;
48945;SDS011;34999;50.940;3.998;2023-05-29T04:22:36;14.27;;;4.50;;
48945;SDS011;34999;50.940;3.998;2023-05-29T04:25:05;14.53;;;4.10;;
48945;SDS011;34999;50.940;3.998;2023-05-29T04:27:34;13.03;;;4.13;;
48945;SDS011;34999;50.940;3.998;2023-05-29T04:30:04;13.60;;;4.17;;
48945;SDS011;34999;50.940;3.998;2023-05-29T04:32:33;14.33;;;4.37;;
48945;SDS011;34999;50.940;3.998;2023-05-29T04:35:03;13.03;;;4.00;;
48945;SDS011;34999;50.940;3.998;2023-05-29T04:37:32;13.00;;;3.90;;
48945;SDS011;34999;50.940;3.998;2023-05-29T04:40:04;11.40;;;4.40;;
48945;SDS011;34999;50.940;3.998;2023-05-29T04:42:36;13.73;;;3.93;;
48945;SDS011;34999;50.940;3.998;2023-05-29T04:45:06;15.20;;;4.03;;
48945;SDS011;34999;50.940;3.998;2023-05-29T04:47:36;15.33;;;4.00;;
48945;SDS011;34999;50.940;3.998;2023-05-29T04:50:10;15.00;;;3.90;;
48945;SDS011;34999;50.940;3.998;2023-05-29T04:52:40;15.83;;;4.13;;
48945;SDS011;34999;50.940;3.998;2023-05-29T04:55:08;18.97;;;3.97;;
48945;SDS011;34999;50.940;3.998;2023-05-29T04:57:38;14.77;;;4.67;;
48945;SDS011;34999;50.940;3.998;2023-05-29T05:00:07;16.67;;;4.37;;
48945;SDS011;34999;50.940;3.998;2023-05-29T05:02:41;12.50;;;3.77;;
48945;SDS011;34999;50.940;3.998;2023-05-29T05:05:10;12.80;;;3.77;;
48945;SDS011;34999;50.940;3.998;2023-05-29T05:07:40;10.83;;;3.90;;
48945;SDS011;34999;50.940;3.998;2023-05-29T05:10:09;16.17;;;4.03;;
48945;SDS011;34999;50.940;3.998;2023-05-29T05:12:38;15.47;;;3.70;;
48945;SDS011;34999;50.940;3.998;2023-05-29T05:15:06;21.20;;;4.30;;
48945;SDS011;34999;50.940;3.998;2023-05-29T05:17:36;19.73;;;4.10;;
48945;SDS011;34999;50.940;3.998;2023-05-29T05:20:04;18.10;;;4.03;;
48945;SDS011;34999;50.940;3.998;2023-05-29T05:22:35;17.27;;;4.20;;
48945;SDS011;34999;50.940;3.998;2023-05-29T05:25:05;15.07;;;3.40;;
48945;SDS011;34999;50.940;3.998;2023-05-29T05:27:33;12.53;;;4.13;;
48945;SDS011;34999;50.940;3.998;2023-05-29T05:30:02;14.47;;;3.90;;
48945;SDS011;34999;50.940;3.998;2023-05-29T05:32:30;13.77;;;3.47;;
48945;SDS011;34999;50.940;3.998;2023-05-29T05:34:59;12.43;;;3.77;;
48945;SDS011;34999;50.940;3.998;2023-05-29T05:37:27;13.27;;;3.77;;
48945;SDS011;34999;50.940;3.998;2023-05-29T05:39:55;15.80;;;3.70;;
48945;SDS011;34999;50.940;3.998;2023-05-29T05:42:27;15.50;;;4.40;;
48945;SDS011;34999;50.940;3.998;2023-05-29T05:44:56;13.70;;;3.60;;
48945;SDS011;34999;50.940;3.998;2023-05-29T05:47:24;18.07;;;3.87;;
48945;SDS011;34999;50.940;3.998;2023-05-29T05:49:54;15.23;;;3.57;;
48945;SDS011;34999;50.940;3.998;2023-05-29T05:52:23;16.17;;;3.77;;
48945;SDS011;34999;50.940;3.998;2023-05-29T05:54:52;12.77;;;3.80;;
48945;SDS011;34999;50.940;3.998;2023-05-29T05:57:20;14.20;;;4.07;;
48945;SDS011;34999;50.940;3.998;2023-05-29T05:59:50;20.37;;;4.10;;
48945;SDS011;34999;50.940;3.998;2023-05-29T06:02:18;17.97;;;4.00;;
48945;SDS011;34999;50.940;3.998;2023-05-29T06:04:46;14.07;;;3.80;;
48945;SDS011;34999;50.940;3.998;2023-05-29T06:07:15;18.43;;;4.27;;
48945;SDS011;34999;50.940;3.998;2023-05-29T06:09:44;17.17;;;3.80;;
48945;SDS011;34999;50.940;3.998;2023-05-29T06:12:12;12.40;;;3.90;;
48945;SDS011;34999;50.940;3.998;2023-05-29T06:14:40;18.63;;;3.70;;
48945;SDS011;34999;50.940;3.998;2023-05-29T06:17:10;7.93;;;3.47;;
48945;SDS011;34999;50.940;3.998;2023-05-29T06:19:39;14.73;;;3.60;;
48945;SDS011;34999;50.940;3.998;2023-05-29T06:22:07;14.33;;;3.50;;
48945;SDS011;34999;50.940;3.998;2023-05-29T06:24:36;13.93;;;3.63;;
48945;SDS011;34999;50.940;3.998;2023-05-29T06:27:04;11.93;;;3.50;;
48945;SDS011;34999;50.940;3.998;2023-05-29T06:29:33;14.00;;;3.67;;
48945;SDS011;34999;50.940;3.998;2023-05-29T06:32:01;10.63;;;3.53;;
48945;SDS011;34999;50.940;3.998;2023-05-29T06:34:31;12.40;;;3.03;;
48945;SDS011;34999;50.940;3.998;2023-05-29T06:36:59;12.73;;;3.00;;
48945;SDS011;34999;50.940;3.998;2023-05-29T06:39:28;7.97;;;3.17;;
48945;SDS011;34999;50.940;3.998;2023-05-29T06:41:56;14.10;;;3.47;;
48945;SDS011;34999;50.940;3.998;2023-05-29T06:44:25;18.03;;;3.40;;
48945;SDS011;34999;50.940;3.998;2023-05-29T06:46:53;8.40;;;3.10;;
48945;SDS011;34999;50.940;3.998;2023-05-29T06:49:21;9.30;;;3.27;;
48945;SDS011;34999;50.940;3.998;2023-05-29T06:51:51;14.27;;;3.00;;
48945;SDS011;34999;50.940;3.998;2023-05-29T06:54:23;15.43;;;3.77;;
48945;SDS011;34999;50.940;3.998;2023-05-29T06:56:51;15.07;;;3.30;;
48945;SDS011;34999;50.940;3.998;2023-05-29T06:59:35;13.30;;;3.23;;
48945;SDS011;34999;50.940;3.998;2023-05-29T07:02:04;10.27;;;3.80;;
48945;SDS011;34999;50.940;3.998;2023-05-29T07:04:32;9.47;;;3.20;;
48945;SDS011;34999;50.940;3.998;2023-05-29T07:07:02;7.60;;;2.83;;
48945;SDS011;34999;50.940;3.998;2023-05-29T07:09:30;12.40;;;2.83;;
48945;SDS011;34999;50.940;3.998;2023-05-29T07:11:59;10.17;;;3.73;;
48945;SDS011;34999;50.940;3.998;2023-05-29T07:14:27;18.83;;;3.57;;
48945;SDS011;34999;50.940;3.998;2023-05-29T07:16:56;11.50;;;3.07;;
48945;SDS011;34999;50.940;3.998;2023-05-29T07:19:24;10.60;;;3.30;;
48945;SDS011;34999;50.940;3.998;2023-05-29T07:21:52;11.50;;;3.57;;
48945;SDS011;34999;50.940;3.998;2023-05-29T07:24:22;10.80;;;2.83;;
48945;SDS011;34999;50.940;3.998;2023-05-29T07:26:50;13.90;;;2.90;;
48945;SDS011;34999;50.940;3.998;2023-05-29T07:29:19;15.67;;;3.43;;
48945;SDS011;34999;50.940;3.998;2023-05-29T07:31:50;12.27;;;2.90;;
48945;SDS011;34999;50.940;3.998;2023-05-29T07:34:18;10.80;;;3.00;;
48945;SDS011;34999;50.940;3.998;2023-05-29T07:36:57;10.13;;;3.10;;
48945;SDS011;34999;50.940;3.998;2023-05-29T07:39:28;10.70;;;2.70;;
48945;SDS011;34999;50.940;3.998;2023-05-29T07:41:56;9.87;;;3.47;;
48945;SDS011;34999;50.940;3.998;2023-05-29T07:44:25;11.13;;;3.33;;
48945;SDS011;34999;50.940;3.998;2023-05-29T07:46:53;8.73;;;2.83;;
48945;SDS011;34999;50.940;3.998;2023-05-29T07:49:22;9.50;;;3.10;;
48945;SDS011;34999;50.940;3.998;2023-05-29T07:51:51;9.83;;;3.23;;
48945;SDS011;34999;50.940;3.998;2023-05-29T07:54:19;11.27;;;3.23;;
48945;SDS011;34999;50.940;3.998;2023-05-29T07:56:50;10.37;;;3.20;;
48945;SDS011;34999;50.940;3.998;2023-05-29T07:59:19;10.97;;;3.70;;
48945;SDS011;34999;50.940;3.998;2023-05-29T08:01:47;8.10;;;2.73;;
48945;SDS011;34999;50.940;3.998;2023-05-29T08:04:16;9.30;;;3.07;;
48945;SDS011;34999;50.940;3.998;2023-05-29T08:06:44;9.47;;;2.87;;
48945;SDS011;34999;50.940;3.998;2023-05-29T08:09:13;8.07;;;2.80;;
48945;SDS011;34999;50.940;3.998;2023-05-29T08:11:41;6.93;;;2.60;;
48945;SDS011;34999;50.940;3.998;2023-05-29T08:14:13;10.20;;;3.03;;
48945;SDS011;34999;50.940;3.998;2023-05-29T08:16:42;13.73;;;3.20;;
48945;SDS011;34999;50.940;3.998;2023-05-29T08:19:10;11.03;;;2.97;;
48945;SDS011;34999;50.940;3.998;2023-05-29T08:21:38;14.70;;;3.17;;
48945;SDS011;34999;50.940;3.998;2023-05-29T08:24:07;7.03;;;2.60;;
48945;SDS011;34999;50.940;3.998;2023-05-29T08:26:35;7.40;;;2.40;;
48945;SDS011;34999;50.940;3.998;2023-05-29T08:29:03;9.37;;;2.70;;
48945;SDS011;34999;50.940;3.998;2023-05-29T08:31:33;14.23;;;3.37;;
48945;SDS011;34999;50.940;3.998;2023-05-29T08:34:02;8.43;;;2.90;;
48945;SDS011;34999;50.940;3.998;2023-05-29T08:36:30;8.07;;;2.67;;
48945;SDS011;34999;50.940;3.998;2023-05-29T08:38:59;9.93;;;3.27;;
48945;SDS011;34999;50.940;3.998;2023-05-29T08:41:28;10.97;;;3.23;;
48945;SDS011;34999;50.940;3.998;2023-05-29T08:44:06;14.07;;;2.87;;
48945;SDS011;34999;50.940;3.998;2023-05-29T08:46:42;8.20;;;3.00;;
48945;SDS011;34999;50.940;3.998;2023-05-29T08:49:12;6.40;;;2.53;;
48945;SDS011;34999;50.940;3.998;2023-05-29T08:51:44;8.90;;;2.87;;
48945;SDS011;34999;50.940;3.998;2023-05-29T08:54:17;13.53;;;3.03;;
48945;SDS011;34999;50.940;3.998;2023-05-29T08:56:45;7.03;;;2.80;;
48945;SDS011;34999;50.940;3.998;2023-05-29T08:59:13;7.77;;;3.10;;
48945;SDS011;34999;50.940;3.998;2023-05-29T09:01:45;6.77;;;2.37;;
48945;SDS011;34999;50.940;3.998;2023-05-29T09:04:14;9.10;;;2.67;;
48945;SDS011;34999;50.940;3.998;2023-05-29T09:06:43;7.77;;;2.93;;
48945;SDS011;34999;50.940;3.998;2023-05-29T09:09:15;6.70;;;2.70;;
48945;SDS011;34999;50.940;3.998;2023-05-29T09:11:43;7.83;;;3.00;;
48945;SDS011;34999;50.940;3.998;2023-05-29T09:17:04;8.87;;;2.90;;
48945;SDS011;34999;50.940;3.998;2023-05-29T09:19:33;13.83;;;3.00;;
48945;SDS011;34999;50.940;3.998;2023-05-29T09:22:02;11.27;;;2.90;;
48945;SDS011;34999;50.940;3.998;2023-05-29T09:24:35;6.93;;;2.47;;
48945;SDS011;34999;50.940;3.998;2023-05-29T09:27:04;11.80;;;3.10;;
48945;SDS011;34999;50.940;3.998;2023-05-29T09:29:37;6.93;;;2.70;;
48945;SDS011;34999;50.940;3.998;2023-05-29T09:32:08;12.63;;;2.93;;
48945;SDS011;34999;50.940;3.998;2023-05-29T09:34:36;8.83;;;3.47;;
48945;SDS011;34999;50.940;3.998;2023-05-29T09:37:06;7.50;;;3.03;;
48945;SDS011;34999;50.940;3.998;2023-05-29T09:39:44;7.33;;;3.00;;
48945;SDS011;34999;50.940;3.998;2023-05-29T09:42:13;8.10;;;2.80;;
48945;SDS011;34999;50.940;3.998;2023-05-29T09:44:43;8.63;;;3.00;;
48945;SDS011;34999;50.940;3.998;2023-05-29T09:47:16;8.67;;;2.97;;
48945;SDS011;34999;50.940;3.998;2023-05-29T09:49:45;12.33;;;3.57;;
48945;SDS011;34999;50.940;3.998;2023-05-29T09:52:14;8.50;;;3.23;;
48945;SDS011;34999;50.940;3.998;2023-05-29T09:54:43;11.83;;;3.40;;
48945;SDS011;34999;50.940;3.998;2023-05-29T09:57:12;6.70;;;2.93;;
48945;SDS011;34999;50.940;3.998;2023-05-29T09:59:42;12.43;;;3.37;;
48945;SDS011;34999;50.940;3.998;2023-05-29T10:02:14;9.17;;;2.80;;
48945;SDS011;34999;50.940;3.998;2023-05-29T10:04:43;7.87;;;3.13;;
48945;SDS011;34999;50.940;3.998;2023-05-29T10:07:12;11.00;;;3.13;;
48945;SDS011;34999;50.940;3.998;2023-05-29T10:09:49;8.10;;;3.03;;
48945;SDS011;34999;50.940;3.998;2023-05-29T10:12:22;7.97;;;3.27;;
48945;SDS011;34999;50.940;3.998;2023-05-29T10:14:51;8.77;;;2.67;;
48945;SDS011;34999;50.940;3.998;2023-05-29T10:17:26;10.87;;;3.13;;
48945;SDS011;34999;50.940;3.998;2023-05-29T10:19:59;8.37;;;2.83;;
48945;SDS011;34999;50.940;3.998;2023-05-29T10:22:30;4.27;;;2.87;;
48945;SDS011;34999;50.940;3.998;2023-05-29T10:25:00;6.50;;;3.03;;
48945;SDS011;34999;50.940;3.998;2023-05-29T10:27:29;6.30;;;2.80;;
48945;SDS011;34999;50.940;3.998;2023-05-29T10:29:59;6.00;;;2.80;;
48945;SDS011;34999;50.940;3.998;2023-05-29T10:32:37;6.90;;;3.00;;
48945;SDS011;34999;50.940;3.998;2023-05-29T10:35:16;9.50;;;2.90;;
48945;SDS011;34999;50.940;3.998;2023-05-29T10:37:54;7.00;;;3.00;;
48945;SDS011;34999;50.940;3.998;2023-05-29T10:40:27;9.23;;;2.80;;
48945;SDS011;34999;50.940;3.998;2023-05-29T10:42:55;6.33;;;2.77;;
48945;SDS011;34999;50.940;3.998;2023-05-29T10:51:23;5.77;;;2.47;;
48945;SDS011;34999;50.940;3.998;2023-05-29T10:53:53;8.40;;;2.90;;
48945;SDS011;34999;50.940;3.998;2023-05-29T10:56:22;6.63;;;3.13;;
48945;SDS011;34999;50.940;3.998;2023-05-29T10:58:55;12.13;;;3.00;;
48945;SDS011;34999;50.940;3.998;2023-05-29T11:01:27;5.30;;;2.83;;
48945;SDS011;34999;50.940;3.998;2023-05-29T11:07:00;4.93;;;2.87;;
48945;SDS011;34999;50.940;3.998;2023-05-29T11:09:33;6.03;;;2.53;;
48945;SDS011;34999;50.940;3.998;2023-05-29T11:12:10;7.13;;;2.90;;
48945;SDS011;34999;50.940;3.998;2023-05-29T11:14:54;7.20;;;2.97;;
48945;SDS011;34999;50.940;3.998;2023-05-29T11:17:33;7.03;;;3.00;;
48945;SDS011;34999;50.940;3.998;2023-05-29T11:20:33;8.23;;;3.00;;
48945;SDS011;34999;50.940;3.998;2023-05-29T11:23:04;8.17;;;2.63;;
48945;SDS011;34999;50.940;3.998;2023-05-29T11:25:35;7.60;;;2.60;;
48945;SDS011;34999;50.940;3.998;2023-05-29T11:28:04;8.80;;;2.83;;
48945;SDS011;34999;50.940;3.998;2023-05-29T11:30:42;5.40;;;2.57;;
48945;SDS011;34999;50.940;3.998;2023-05-29T11:33:19;10.03;;;2.97;;
48945;SDS011;34999;50.940;3.998;2023-05-29T11:35:57;5.77;;;2.80;;
48945;SDS011;34999;50.940;3.998;2023-05-29T11:38:28;6.50;;;2.90;;
48945;SDS011;34999;50.940;3.998;2023-05-29T11:40:56;8.20;;;3.23;;
48945;SDS011;34999;50.940;3.998;2023-05-29T11:43:25;4.83;;;2.37;;
48945;SDS011;34999;50.940;3.998;2023-05-29T11:45:53;11.30;;;3.10;;
48945;SDS011;34999;50.940;3.998;2023-05-29T11:48:22;7.63;;;2.23;;
48945;SDS011;34999;50.940;3.998;2023-05-29T11:50:51;12.07;;;2.70;;
48945;SDS011;34999;50.940;3.998;2023-05-29T11:53:21;5.30;;;2.53;;
48945;SDS011;34999;50.940;3.998;2023-05-29T11:55:49;4.57;;;2.80;;
48945;SDS011;34999;50.940;3.998;2023-05-29T11:58:18;6.00;;;2.83;;
48945;SDS011;34999;50.940;3.998;2023-05-29T12:00:49;8.47;;;3.03;;
48945;SDS011;34999;50.940;3.998;2023-05-29T12:03:17;9.17;;;3.33;;
48945;SDS011;34999;50.940;3.998;2023-05-29T12:05:48;7.27;;;3.17;;
48945;SDS011;34999;50.940;3.998;2023-05-29T12:08:22;5.60;;;2.83;;
48945;SDS011;34999;50.940;3.998;2023-05-29T12:10:51;6.60;;;2.80;;
48945;SDS011;34999;50.940;3.998;2023-05-29T12:13:20;6.83;;;2.90;;
48945;SDS011;34999;50.940;3.998;2023-05-29T12:15:52;10.10;;;3.17;;
48945;SDS011;34999;50.940;3.998;2023-05-29T12:18:24;10.77;;;3.27;;
48945;SDS011;34999;50.940;3.998;2023-05-29T12:20:56;10.77;;;3.23;;
48945;SDS011;34999;50.940;3.998;2023-05-29T12:23:27;6.60;;;2.67;;
48945;SDS011;34999;50.940;3.998;2023-05-29T12:25:56;11.60;;;3.53;;
48945;SDS011;34999;50.940;3.998;2023-05-29T12:28:25;12.17;;;3.20;;
48945;SDS011;34999;50.940;3.998;2023-05-29T12:30:58;8.03;;;3.10;;
48945;SDS011;34999;50.940;3.998;2023-05-29T12:33:27;6.60;;;2.80;;
48945;SDS011;34999;50.940;3.998;2023-05-29T12:36:06;11.10;;;3.37;;
48945;SDS011;34999;50.940;3.998;2023-05-29T12:38:41;7.87;;;3.57;;
48945;SDS011;34999;50.940;3.998;2023-05-29T12:41:24;12.03;;;3.43;;
48945;SDS011;34999;50.940;3.998;2023-05-29T12:43:53;8.10;;;3.00;;
48945;SDS011;34999;50.940;3.998;2023-05-29T12:46:23;12.90;;;3.10;;
48945;SDS011;34999;50.940;3.998;2023-05-29T12:48:52;11.37;;;3.27;;
48945;SDS011;34999;50.940;3.998;2023-05-29T12:51:24;7.43;;;2.70;;
48945;SDS011;34999;50.940;3.998;2023-05-29T12:53:59;10.83;;;3.77;;
48945;SDS011;34999;50.940;3.998;2023-05-29T12:56:29;8.03;;;2.97;;
48945;SDS011;34999;50.940;3.998;2023-05-29T12:58:57;8.77;;;3.50;;
48945;SDS011;34999;50.940;3.998;2023-05-29T13:01:25;10.97;;;3.30;;
48945;SDS011;34999;50.940;3.998;2023-05-29T13:03:53;9.20;;;3.33;;
48945;SDS011;34999;50.940;3.998;2023-05-29T13:06:22;12.23;;;3.80;;
48945;SDS011;34999;50.940;3.998;2023-05-29T13:08:51;7.30;;;3.20;;
48945;SDS011;34999;50.940;3.998;2023-05-29T13:11:21;7.80;;;3.00;;
48945;SDS011;34999;50.940;3.998;2023-05-29T13:13:49;7.13;;;3.20;;
48945;SDS011;34999;50.940;3.998;2023-05-29T13:16:18;7.50;;;3.33;;
48945;SDS011;34999;50.940;3.998;2023-05-29T13:18:47;10.33;;;3.30;;
48945;SDS011;34999;50.940;3.998;2023-05-29T13:21:15;5.67;;;3.27;;
48945;SDS011;34999;50.940;3.998;2023-05-29T13:23:43;9.90;;;3.07;;
48945;SDS011;34999;50.940;3.998;2023-05-29T13:26:12;9.03;;;4.07;;
48945;SDS011;34999;50.940;3.998;2023-05-29T13:28:41;8.67;;;3.23;;
48945;SDS011;34999;50.940;3.998;2023-05-29T13:31:10;8.50;;;3.13;;
48945;SDS011;34999;50.940;3.998;2023-05-29T13:33:38;7.20;;;3.40;;
48945;SDS011;34999;50.940;3.998;2023-05-29T13:36:07;8.53;;;3.40;;
48945;SDS011;34999;50.940;3.998;2023-05-29T13:38:35;8.70;;;3.60;;
48945;SDS011;34999;50.940;3.998;2023-05-29T13:41:04;35.13;;;9.83;;
48945;SDS011;34999;50.940;3.998;2023-05-29T13:43:32;20.43;;;6.70;;
48945;SDS011;34999;50.940;3.998;2023-05-29T13:46:11;13.03;;;3.90;;
48945;SDS011;34999;50.940;3.998;2023-05-29T13:48:39;14.13;;;4.07;;
48945;SDS011;34999;50.940;3.998;2023-05-29T13:51:08;15.50;;;3.87;;
48945;SDS011;34999;50.940;3.998;2023-05-29T13:53:37;9.53;;;3.23;;
48945;SDS011;34999;50.940;3.998;2023-05-29T13:56:05;8.43;;;3.20;;
48945;SDS011;34999;50.940;3.998;2023-05-29T13:58:34;10.00;;;3.33;;
48945;SDS011;34999;50.940;3.998;2023-05-29T14:01:02;11.47;;;3.17;;
48945;SDS011;34999;50.940;3.998;2023-05-29T14:03:32;13.37;;;3.00;;
48945;SDS011;34999;50.940;3.998;2023-05-29T14:06:00;8.50;;;3.30;;
48945;SDS011;34999;50.940;3.998;2023-05-29T14:08:31;7.07;;;3.03;;
48945;SDS011;34999;50.940;3.998;2023-05-29T14:10:59;5.77;;;2.90;;
48945;SDS011;34999;50.940;3.998;2023-05-29T14:13:28;8.93;;;3.63;;
48945;SDS011;34999;50.940;3.998;2023-05-29T14:15:56;6.10;;;2.53;;
48945;SDS011;34999;50.940;3.998;2023-05-29T14:18:25;7.03;;;3.07;;
48945;SDS011;34999;50.940;3.998;2023-05-29T14:20:55;8.80;;;3.07;;
48945;SDS011;34999;50.940;3.998;2023-05-29T14:23:23;7.47;;;3.20;;
48945;SDS011;34999;50.940;3.998;2023-05-29T14:25:51;9.80;;;3.10;;
48945;SDS011;34999;50.940;3.998;2023-05-29T14:28:20;8.50;;;3.33;;
48945;SDS011;34999;50.940;3.998;2023-05-29T14:30:48;9.00;;;3.10;;
48945;SDS011;34999;50.940;3.998;2023-05-29T14:33:17;8.47;;;3.10;;
48945;SDS011;34999;50.940;3.998;2023-05-29T14:35:45;9.53;;;3.30;;
48945;SDS011;34999;50.940;3.998;2023-05-29T14:38:15;8.57;;;3.40;;
48945;SDS011;34999;50.940;3.998;2023-05-29T14:40:43;9.20;;;3.30;;
48945;SDS011;34999;50.940;3.998;2023-05-29T14:43:23;8.43;;;3.13;;
48945;SDS011;34999;50.940;3.998;2023-05-29T14:45:51;8.63;;;3.30;;
48945;SDS011;34999;50.940;3.998;2023-05-29T14:48:19;6.23;;;3.03;;
48945;SDS011;34999;50.940;3.998;2023-05-29T14:50:48;8.53;;;3.43;;
48945;SDS011;34999;50.940;3.998;2023-05-29T14:53:17;7.53;;;3.30;;
48945;SDS011;34999;50.940;3.998;2023-05-29T14:55:47;8.37;;;3.03;;
48945;SDS011;34999;50.940;3.998;2023-05-29T14:58:15;9.70;;;2.93;;
48945;SDS011;34999;50.940;3.998;2023-05-29T15:00:44;9.07;;;3.30;;
48945;SDS011;34999;50.940;3.998;2023-05-29T15:03:12;9.20;;;2.93;;
48945;SDS011;34999;50.940;3.998;2023-05-29T15:05:40;15.37;;;3.40;;
48945;SDS011;34999;50.940;3.998;2023-05-29T15:08:08;7.70;;;2.97;;